sensor_id;sensor_type;location;lat;lon;timestamp;temperature;humidity
11989;DHT22;6054;50.966;7.094;2024-03-29T00:01:14;16.70;43.40
11989;DHT22;6054;50.966;7.094;2024-03-29T00:03:44;16.60;43.10
11989;DHT22;6054;50.966;7.094;2024-03-29T00:06:10;16.60;43.20
11989;DHT22;6054;50.966;7.094;2024-03-29T00:08:42;16.80;43.30
11989;DHT22;6054;50.966;7.094;2024-03-29T00:11:10;16.60;43.00
11989;DHT22;6054;50.966;7.094;2024-03-29T00:13:39;16.60;42.90
11989;DHT22;6054;50.966;7.094;2024-03-29T00:16:16;16.60;43.10
11989;DHT22;6054;50.966;7.094;2024-03-29T00:18:49;16.80;43.20
11989;DHT22;6054;50.966;7.094;2024-03-29T00:21:19;16.50;43.50
11989;DHT22;6054;50.966;7.094;2024-03-29T00:23:46;16.50;43.00
11989;DHT22;6054;50.966;7.094;2024-03-29T00:26:12;16.50;42.90
11989;DHT22;6054;50.966;7.094;2024-03-29T00:28:39;16.40;42.30
11989;DHT22;6054;50.966;7.094;2024-03-29T00:31:08;16.40;42.80
11989;DHT22;6054;50.966;7.094;2024-03-29T00:33:34;16.40;42.80
11989;DHT22;6054;50.966;7.094;2024-03-29T00:36:08;16.40;43.00
11989;DHT22;6054;50.966;7.094;2024-03-29T00:38:37;16.40;43.00
11989;DHT22;6054;50.966;7.094;2024-03-29T00:41:05;16.40;42.30
11989;DHT22;6054;50.966;7.094;2024-03-29T00:43:53;16.30;41.80
11989;DHT22;6054;50.966;7.094;2024-03-29T00:46:24;16.30;43.10
11989;DHT22;6054;50.966;7.094;2024-03-29T00:48:53;16.30;42.70
11989;DHT22;6054;50.966;7.094;2024-03-29T00:51:37;16.60;43.10
11989;DHT22;6054;50.966;7.094;2024-03-29T00:54:04;16.30;42.90
11989;DHT22;6054;50.966;7.094;2024-03-29T00:56:34;16.40;43.40
11989;DHT22;6054;50.966;7.094;2024-03-29T00:59:00;16.40;43.10
11989;DHT22;6054;50.966;7.094;2024-03-29T01:01:30;16.40;43.20
11989;DHT22;6054;50.966;7.094;2024-03-29T01:03:56;16.40;42.90
11989;DHT22;6054;50.966;7.094;2024-03-29T01:06:24;16.40;42.60
11989;DHT22;6054;50.966;7.094;2024-03-29T01:08:52;16.60;42.80
11989;DHT22;6054;50.966;7.094;2024-03-29T01:11:18;16.50;42.10
11989;DHT22;6054;50.966;7.094;2024-03-29T01:13:48;16.40;42.20
11989;DHT22;6054;50.966;7.094;2024-03-29T01:16:20;16.40;42.10
11989;DHT22;6054;50.966;7.094;2024-03-29T01:18:46;16.40;42.70
11989;DHT22;6054;50.966;7.094;2024-03-29T01:21:12;16.60;42.50
11989;DHT22;6054;50.966;7.094;2024-03-29T01:23:41;16.40;42.50
11989;DHT22;6054;50.966;7.094;2024-03-29T01:26:11;16.40;42.60
11989;DHT22;6054;50.966;7.094;2024-03-29T01:28:40;16.40;42.30
11989;DHT22;6054;50.966;7.094;2024-03-29T01:31:06;16.50;42.70
11989;DHT22;6054;50.966;7.094;2024-03-29T01:33:38;16.60;41.40
11989;DHT22;6054;50.966;7.094;2024-03-29T01:36:05;16.60;41.70
11989;DHT22;6054;50.966;7.094;2024-03-29T01:38:31;16.50;42.20
11989;DHT22;6054;50.966;7.094;2024-03-29T01:41:00;16.40;41.80
11989;DHT22;6054;50.966;7.094;2024-03-29T01:43:28;16.50;43.00
11989;DHT22;6054;50.966;7.094;2024-03-29T01:45:56;16.50;42.30
11989;DHT22;6054;50.966;7.094;2024-03-29T01:48:25;16.50;42.00
11989;DHT22;6054;50.966;7.094;2024-03-29T01:50:55;16.70;42.30
11989;DHT22;6054;50.966;7.094;2024-03-29T01:53:24;16.50;42.40
11989;DHT22;6054;50.966;7.094;2024-03-29T01:55:52;16.60;42.50
11989;DHT22;6054;50.966;7.094;2024-03-29T01:58:20;16.50;42.20
11989;DHT22;6054;50.966;7.094;2024-03-29T02:00:52;16.50;42.30
11989;DHT22;6054;50.966;7.094;2024-03-29T02:03:22;16.70;42.60
11989;DHT22;6054;50.966;7.094;2024-03-29T02:05:50;16.60;41.90
11989;DHT22;6054;50.966;7.094;2024-03-29T02:08:18;16.80;41.40
11989;DHT22;6054;50.966;7.094;2024-03-29T02:10:46;16.60;42.00
11989;DHT22;6054;50.966;7.094;2024-03-29T02:13:16;16.80;42.50
11989;DHT22;6054;50.966;7.094;2024-03-29T02:15:43;16.60;41.80
11989;DHT22;6054;50.966;7.094;2024-03-29T02:18:12;16.60;42.00
11989;DHT22;6054;50.966;7.094;2024-03-29T02:20:39;16.50;42.60
11989;DHT22;6054;50.966;7.094;2024-03-29T02:23:10;16.50;41.60
11989;DHT22;6054;50.966;7.094;2024-03-29T02:25:39;16.50;42.00
11989;DHT22;6054;50.966;7.094;2024-03-29T02:28:07;16.50;42.00
11989;DHT22;6054;50.966;7.094;2024-03-29T02:30:35;16.60;42.50
11989;DHT22;6054;50.966;7.094;2024-03-29T02:33:03;16.60;42.40
11989;DHT22;6054;50.966;7.094;2024-03-29T02:35:34;16.60;42.70
11989;DHT22;6054;50.966;7.094;2024-03-29T02:38:03;16.60;40.80
11989;DHT22;6054;50.966;7.094;2024-03-29T02:40:30;16.60;41.30
11989;DHT22;6054;50.966;7.094;2024-03-29T02:43:03;16.60;42.50
11989;DHT22;6054;50.966;7.094;2024-03-29T02:45:30;16.60;42.90
11989;DHT22;6054;50.966;7.094;2024-03-29T02:47:57;16.70;42.10
11989;DHT22;6054;50.966;7.094;2024-03-29T02:50:23;16.70;42.50
11989;DHT22;6054;50.966;7.094;2024-03-29T02:52:50;16.70;42.50
11989;DHT22;6054;50.966;7.094;2024-03-29T02:55:16;16.70;41.90
11989;DHT22;6054;50.966;7.094;2024-03-29T02:57:44;16.60;41.50
11989;DHT22;6054;50.966;7.094;2024-03-29T03:00:14;16.70;42.10
11989;DHT22;6054;50.966;7.094;2024-03-29T03:02:41;16.60;42.30
11989;DHT22;6054;50.966;7.094;2024-03-29T03:05:08;16.60;41.90
11989;DHT22;6054;50.966;7.094;2024-03-29T03:07:35;16.60;41.80
11989;DHT22;6054;50.966;7.094;2024-03-29T03:10:20;16.60;42.30
11989;DHT22;6054;50.966;7.094;2024-03-29T03:13:04;16.70;42.10
11989;DHT22;6054;50.966;7.094;2024-03-29T03:15:34;16.60;42.20
11989;DHT22;6054;50.966;7.094;2024-03-29T03:18:01;16.60;42.30
11989;DHT22;6054;50.966;7.094;2024-03-29T03:20:28;16.60;42.10
11989;DHT22;6054;50.966;7.094;2024-03-29T03:22:56;16.60;42.20
11989;DHT22;6054;50.966;7.094;2024-03-29T03:25:24;16.60;42.10
11989;DHT22;6054;50.966;7.094;2024-03-29T03:27:50;16.60;42.40
11989;DHT22;6054;50.966;7.094;2024-03-29T03:30:17;16.60;42.10
11989;DHT22;6054;50.966;7.094;2024-03-29T03:32:44;16.60;41.80
11989;DHT22;6054;50.966;7.094;2024-03-29T03:35:11;16.60;41.80
11989;DHT22;6054;50.966;7.094;2024-03-29T03:37:37;16.60;41.70
11989;DHT22;6054;50.966;7.094;2024-03-29T03:40:08;16.60;41.60
11989;DHT22;6054;50.966;7.094;2024-03-29T03:42:35;16.60;42.10
11989;DHT22;6054;50.966;7.094;2024-03-29T03:45:05;16.60;42.50
11989;DHT22;6054;50.966;7.094;2024-03-29T03:47:31;16.60;40.90
11989;DHT22;6054;50.966;7.094;2024-03-29T03:50:00;16.60;41.60
11989;DHT22;6054;50.966;7.094;2024-03-29T03:52:26;16.60;39.20
11989;DHT22;6054;50.966;7.094;2024-03-29T03:54:52;16.60;41.60
11989;DHT22;6054;50.966;7.094;2024-03-29T03:57:18;16.60;41.90
11989;DHT22;6054;50.966;7.094;2024-03-29T03:59:49;16.60;41.80
11989;DHT22;6054;50.966;7.094;2024-03-29T04:02:15;16.50;41.50
11989;DHT22;6054;50.966;7.094;2024-03-29T04:04:42;16.50;41.60
11989;DHT22;6054;50.966;7.094;2024-03-29T04:07:14;16.50;41.50
11989;DHT22;6054;50.966;7.094;2024-03-29T04:09:43;16.50;41.80
11989;DHT22;6054;50.966;7.094;2024-03-29T04:12:10;16.60;42.10
11989;DHT22;6054;50.966;7.094;2024-03-29T04:14:36;16.60;42.00
11989;DHT22;6054;50.966;7.094;2024-03-29T04:17:04;16.60;42.00
11989;DHT22;6054;50.966;7.094;2024-03-29T04:19:32;16.90;42.00
11989;DHT22;6054;50.966;7.094;2024-03-29T04:22:01;16.60;42.30
11989;DHT22;6054;50.966;7.094;2024-03-29T04:24:31;16.70;42.20
11989;DHT22;6054;50.966;7.094;2024-03-29T04:26:57;16.70;42.10
11989;DHT22;6054;50.966;7.094;2024-03-29T04:29:25;16.60;42.50
11989;DHT22;6054;50.966;7.094;2024-03-29T04:31:50;16.70;43.00
11989;DHT22;6054;50.966;7.094;2024-03-29T04:34:17;16.70;42.60
11989;DHT22;6054;50.966;7.094;2024-03-29T04:36:43;16.70;42.80
11989;DHT22;6054;50.966;7.094;2024-03-29T04:39:10;16.70;42.80
11989;DHT22;6054;50.966;7.094;2024-03-29T04:41:39;16.70;42.70
11989;DHT22;6054;50.966;7.094;2024-03-29T04:44:06;16.60;42.90
11989;DHT22;6054;50.966;7.094;2024-03-29T04:46:35;16.60;43.00
11989;DHT22;6054;50.966;7.094;2024-03-29T04:49:18;16.60;43.40
11989;DHT22;6054;50.966;7.094;2024-03-29T04:51:48;16.60;43.90
11989;DHT22;6054;50.966;7.094;2024-03-29T04:54:15;16.80;43.80
11989;DHT22;6054;50.966;7.094;2024-03-29T04:56:45;16.60;44.00
11989;DHT22;6054;50.966;7.094;2024-03-29T04:59:12;16.60;44.10
11989;DHT22;6054;50.966;7.094;2024-03-29T05:01:42;16.50;44.20
11989;DHT22;6054;50.966;7.094;2024-03-29T05:04:12;16.70;44.70
11989;DHT22;6054;50.966;7.094;2024-03-29T05:06:42;16.50;44.60
11989;DHT22;6054;50.966;7.094;2024-03-29T05:09:14;16.50;44.60
11989;DHT22;6054;50.966;7.094;2024-03-29T05:11:40;16.40;45.50
11989;DHT22;6054;50.966;7.094;2024-03-29T05:14:09;16.40;45.10
11989;DHT22;6054;50.966;7.094;2024-03-29T05:16:36;16.50;45.10
11989;DHT22;6054;50.966;7.094;2024-03-29T05:19:03;16.40;44.80
11989;DHT22;6054;50.966;7.094;2024-03-29T05:21:30;16.40;45.20
11989;DHT22;6054;50.966;7.094;2024-03-29T05:23:58;16.40;45.10
11989;DHT22;6054;50.966;7.094;2024-03-29T05:26:28;16.40;44.50
11989;DHT22;6054;50.966;7.094;2024-03-29T05:28:55;16.40;45.40
11989;DHT22;6054;50.966;7.094;2024-03-29T05:31:26;16.40;45.60
11989;DHT22;6054;50.966;7.094;2024-03-29T05:33:54;16.40;45.70
11989;DHT22;6054;50.966;7.094;2024-03-29T05:36:21;16.40;45.70
11989;DHT22;6054;50.966;7.094;2024-03-29T05:38:48;16.40;45.80
11989;DHT22;6054;50.966;7.094;2024-03-29T05:41:15;16.60;45.90
11989;DHT22;6054;50.966;7.094;2024-03-29T05:43:42;16.40;45.90
11989;DHT22;6054;50.966;7.094;2024-03-29T05:46:09;16.40;45.70
11989;DHT22;6054;50.966;7.094;2024-03-29T05:48:37;16.40;45.80
11989;DHT22;6054;50.966;7.094;2024-03-29T05:51:04;16.40;46.10
11989;DHT22;6054;50.966;7.094;2024-03-29T05:53:32;16.70;46.30
11989;DHT22;6054;50.966;7.094;2024-03-29T05:55:59;16.40;46.30
11989;DHT22;6054;50.966;7.094;2024-03-29T05:58:26;16.40;46.20
11989;DHT22;6054;50.966;7.094;2024-03-29T06:00:53;16.40;46.50
11989;DHT22;6054;50.966;7.094;2024-03-29T06:03:19;16.50;46.60
11989;DHT22;6054;50.966;7.094;2024-03-29T06:05:48;16.50;47.10
11989;DHT22;6054;50.966;7.094;2024-03-29T06:08:15;16.40;47.30
11989;DHT22;6054;50.966;7.094;2024-03-29T06:10:42;16.40;47.50
11989;DHT22;6054;50.966;7.094;2024-03-29T06:13:09;16.40;47.60
11989;DHT22;6054;50.966;7.094;2024-03-29T06:15:53;16.50;48.10
11989;DHT22;6054;50.966;7.094;2024-03-29T06:18:52;16.50;48.30
11989;DHT22;6054;50.966;7.094;2024-03-29T06:21:21;16.40;48.20
11989;DHT22;6054;50.966;7.094;2024-03-29T06:23:47;16.50;49.00
11989;DHT22;6054;50.966;7.094;2024-03-29T06:26:14;16.40;48.60
11989;DHT22;6054;50.966;7.094;2024-03-29T06:28:41;16.50;48.80
11989;DHT22;6054;50.966;7.094;2024-03-29T06:31:08;16.40;48.90
11989;DHT22;6054;50.966;7.094;2024-03-29T06:33:36;16.40;49.20
11989;DHT22;6054;50.966;7.094;2024-03-29T06:36:05;16.50;49.00
11989;DHT22;6054;50.966;7.094;2024-03-29T06:38:34;16.50;49.50
11989;DHT22;6054;50.966;7.094;2024-03-29T06:41:02;16.50;49.40
11989;DHT22;6054;50.966;7.094;2024-03-29T06:43:30;16.50;49.30
11989;DHT22;6054;50.966;7.094;2024-03-29T06:45:57;16.50;49.40
11989;DHT22;6054;50.966;7.094;2024-03-29T06:48:25;16.50;49.60
11989;DHT22;6054;50.966;7.094;2024-03-29T06:50:52;16.60;50.10
11989;DHT22;6054;50.966;7.094;2024-03-29T06:53:19;16.60;49.80
11989;DHT22;6054;50.966;7.094;2024-03-29T06:55:48;16.60;50.10
11989;DHT22;6054;50.966;7.094;2024-03-29T06:58:17;16.70;49.80
11989;DHT22;6054;50.966;7.094;2024-03-29T07:00:46;16.50;50.30
11989;DHT22;6054;50.966;7.094;2024-03-29T07:03:14;16.70;50.50
11989;DHT22;6054;50.966;7.094;2024-03-29T07:05:42;16.70;50.50
11989;DHT22;6054;50.966;7.094;2024-03-29T07:08:10;16.90;50.40
11989;DHT22;6054;50.966;7.094;2024-03-29T07:10:38;16.80;50.80
11989;DHT22;6054;50.966;7.094;2024-03-29T07:13:08;16.90;50.60
11989;DHT22;6054;50.966;7.094;2024-03-29T07:15:35;16.80;50.60
11989;DHT22;6054;50.966;7.094;2024-03-29T07:18:03;16.90;50.60
11989;DHT22;6054;50.966;7.094;2024-03-29T07:20:30;16.90;50.80
11989;DHT22;6054;50.966;7.094;2024-03-29T07:22:57;17.00;50.80
11989;DHT22;6054;50.966;7.094;2024-03-29T07:25:24;17.00;50.60
11989;DHT22;6054;50.966;7.094;2024-03-29T07:27:51;17.00;50.50
11989;DHT22;6054;50.966;7.094;2024-03-29T07:30:21;17.10;50.30
11989;DHT22;6054;50.966;7.094;2024-03-29T07:32:49;17.10;50.60
11989;DHT22;6054;50.966;7.094;2024-03-29T07:35:17;17.20;51.00
11989;DHT22;6054;50.966;7.094;2024-03-29T07:37:44;17.20;51.20
11989;DHT22;6054;50.966;7.094;2024-03-29T07:40:13;17.30;51.40
11989;DHT22;6054;50.966;7.094;2024-03-29T07:42:41;17.30;51.30
11989;DHT22;6054;50.966;7.094;2024-03-29T07:45:07;17.40;51.30
11989;DHT22;6054;50.966;7.094;2024-03-29T07:47:36;17.40;51.40
11989;DHT22;6054;50.966;7.094;2024-03-29T07:50:04;17.40;50.70
11989;DHT22;6054;50.966;7.094;2024-03-29T07:52:34;17.50;51.50
11989;DHT22;6054;50.966;7.094;2024-03-29T07:55:01;17.80;51.30
11989;DHT22;6054;50.966;7.094;2024-03-29T07:57:28;17.50;50.90
11989;DHT22;6054;50.966;7.094;2024-03-29T07:59:56;17.60;51.40
11989;DHT22;6054;50.966;7.094;2024-03-29T08:02:24;17.50;51.40
11989;DHT22;6054;50.966;7.094;2024-03-29T08:04:53;17.50;52.10
11989;DHT22;6054;50.966;7.094;2024-03-29T08:07:21;17.60;51.60
11989;DHT22;6054;50.966;7.094;2024-03-29T08:09:50;17.60;51.50
11989;DHT22;6054;50.966;7.094;2024-03-29T08:12:21;17.60;52.10
11989;DHT22;6054;50.966;7.094;2024-03-29T08:14:51;17.60;52.10
11989;DHT22;6054;50.966;7.094;2024-03-29T08:17:21;17.60;51.90
11989;DHT22;6054;50.966;7.094;2024-03-29T08:19:48;17.70;52.00
11989;DHT22;6054;50.966;7.094;2024-03-29T08:22:17;17.70;51.90
11989;DHT22;6054;50.966;7.094;2024-03-29T08:24:44;17.80;51.30
11989;DHT22;6054;50.966;7.094;2024-03-29T08:27:10;17.70;52.00
11989;DHT22;6054;50.966;7.094;2024-03-29T08:29:41;17.80;52.10
11989;DHT22;6054;50.966;7.094;2024-03-29T08:32:10;17.80;52.40
11989;DHT22;6054;50.966;7.094;2024-03-29T08:34:38;18.10;52.10
11989;DHT22;6054;50.966;7.094;2024-03-29T08:37:06;18.10;52.30
11989;DHT22;6054;50.966;7.094;2024-03-29T08:39:34;18.00;51.60
11989;DHT22;6054;50.966;7.094;2024-03-29T08:42:04;18.10;51.80
11989;DHT22;6054;50.966;7.094;2024-03-29T08:44:32;18.10;51.90
11989;DHT22;6054;50.966;7.094;2024-03-29T08:46:59;18.20;52.00
11989;DHT22;6054;50.966;7.094;2024-03-29T08:49:30;18.30;52.20
11989;DHT22;6054;50.966;7.094;2024-03-29T08:52:00;18.30;52.30
11989;DHT22;6054;50.966;7.094;2024-03-29T08:54:30;18.40;51.90
11989;DHT22;6054;50.966;7.094;2024-03-29T08:57:00;18.40;51.70
11989;DHT22;6054;50.966;7.094;2024-03-29T08:59:29;18.50;52.50
11989;DHT22;6054;50.966;7.094;2024-03-29T09:02:04;18.50;51.30
11989;DHT22;6054;50.966;7.094;2024-03-29T09:04:33;18.60;51.50
11989;DHT22;6054;50.966;7.094;2024-03-29T09:07:00;18.60;51.60
11989;DHT22;6054;50.966;7.094;2024-03-29T09:09:29;18.60;51.60
11989;DHT22;6054;50.966;7.094;2024-03-29T09:12:01;18.70;51.50
11989;DHT22;6054;50.966;7.094;2024-03-29T09:14:29;18.70;51.50
11989;DHT22;6054;50.966;7.094;2024-03-29T09:16:57;18.80;51.50
11989;DHT22;6054;50.966;7.094;2024-03-29T09:19:26;18.90;51.40
11989;DHT22;6054;50.966;7.094;2024-03-29T09:21:55;18.90;51.60
11989;DHT22;6054;50.966;7.094;2024-03-29T09:24:23;19.00;51.20
11989;DHT22;6054;50.966;7.094;2024-03-29T09:26:51;19.00;51.80
11989;DHT22;6054;50.966;7.094;2024-03-29T09:29:20;19.00;51.00
11989;DHT22;6054;50.966;7.094;2024-03-29T09:31:48;19.10;51.20
11989;DHT22;6054;50.966;7.094;2024-03-29T09:34:14;19.20;51.20
11989;DHT22;6054;50.966;7.094;2024-03-29T09:36:41;19.20;50.80
11989;DHT22;6054;50.966;7.094;2024-03-29T09:39:11;19.30;51.20
11989;DHT22;6054;50.966;7.094;2024-03-29T09:41:38;19.30;50.70
11989;DHT22;6054;50.966;7.094;2024-03-29T09:44:11;19.40;51.00
11989;DHT22;6054;50.966;7.094;2024-03-29T09:46:42;19.40;50.90
11989;DHT22;6054;50.966;7.094;2024-03-29T09:49:10;19.40;50.50
11989;DHT22;6054;50.966;7.094;2024-03-29T09:51:40;19.40;50.10
11989;DHT22;6054;50.966;7.094;2024-03-29T09:54:10;19.50;50.70
11989;DHT22;6054;50.966;7.094;2024-03-29T09:56:38;19.60;50.30
11989;DHT22;6054;50.966;7.094;2024-03-29T09:59:07;19.60;50.60
11989;DHT22;6054;50.966;7.094;2024-03-29T10:01:37;19.70;50.60
11989;DHT22;6054;50.966;7.094;2024-03-29T10:04:07;19.70;49.40
11989;DHT22;6054;50.966;7.094;2024-03-29T10:06:38;19.70;50.30
11989;DHT22;6054;50.966;7.094;2024-03-29T10:09:08;19.90;50.60
11989;DHT22;6054;50.966;7.094;2024-03-29T10:11:38;19.80;50.30
11989;DHT22;6054;50.966;7.094;2024-03-29T10:14:06;19.90;50.00
11989;DHT22;6054;50.966;7.094;2024-03-29T10:16:33;19.90;49.70
11989;DHT22;6054;50.966;7.094;2024-03-29T10:19:00;19.90;49.70
11989;DHT22;6054;50.966;7.094;2024-03-29T10:21:32;20.00;49.80
11989;DHT22;6054;50.966;7.094;2024-03-29T10:24:09;20.20;49.90
11989;DHT22;6054;50.966;7.094;2024-03-29T10:26:37;20.10;50.20
11989;DHT22;6054;50.966;7.094;2024-03-29T10:29:05;20.20;50.00
11989;DHT22;6054;50.966;7.094;2024-03-29T10:31:34;20.20;49.60
11989;DHT22;6054;50.966;7.094;2024-03-29T10:34:03;20.30;50.00
11989;DHT22;6054;50.966;7.094;2024-03-29T10:36:32;20.30;49.40
11989;DHT22;6054;50.966;7.094;2024-03-29T10:39:02;20.40;48.90
11989;DHT22;6054;50.966;7.094;2024-03-29T10:41:31;20.40;50.00
11989;DHT22;6054;50.966;7.094;2024-03-29T10:44:01;20.50;49.40
11989;DHT22;6054;50.966;7.094;2024-03-29T10:46:30;20.40;49.20
11989;DHT22;6054;50.966;7.094;2024-03-29T10:49:00;20.50;49.30
11989;DHT22;6054;50.966;7.094;2024-03-29T10:51:28;20.50;49.20
11989;DHT22;6054;50.966;7.094;2024-03-29T10:53:58;20.60;49.30
11989;DHT22;6054;50.966;7.094;2024-03-29T11:06:51;20.60;48.70
11989;DHT22;6054;50.966;7.094;2024-03-29T11:09:35;20.60;48.30
11989;DHT22;6054;50.966;7.094;2024-03-29T11:12:05;20.60;48.40
11989;DHT22;6054;50.966;7.094;2024-03-29T11:14:37;20.60;48.50
11989;DHT22;6054;50.966;7.094;2024-03-29T11:17:06;20.60;48.70
11989;DHT22;6054;50.966;7.094;2024-03-29T11:19:35;20.70;48.60
11989;DHT22;6054;50.966;7.094;2024-03-29T11:22:03;20.70;48.60
11989;DHT22;6054;50.966;7.094;2024-03-29T11:24:32;20.70;48.90
11989;DHT22;6054;50.966;7.094;2024-03-29T11:27:07;20.70;48.60
11989;DHT22;6054;50.966;7.094;2024-03-29T11:29:36;20.70;48.90
11989;DHT22;6054;50.966;7.094;2024-03-29T11:32:11;20.80;48.90
11989;DHT22;6054;50.966;7.094;2024-03-29T11:34:43;20.90;48.70
11989;DHT22;6054;50.966;7.094;2024-03-29T11:37:12;20.90;48.70
11989;DHT22;6054;50.966;7.094;2024-03-29T11:39:49;20.90;48.50
11989;DHT22;6054;50.966;7.094;2024-03-29T11:42:17;21.00;48.60
11989;DHT22;6054;50.966;7.094;2024-03-29T11:44:44;21.00;48.20
11989;DHT22;6054;50.966;7.094;2024-03-29T11:47:13;21.00;47.90
11989;DHT22;6054;50.966;7.094;2024-03-29T11:49:43;21.00;48.40
11989;DHT22;6054;50.966;7.094;2024-03-29T11:52:11;21.00;48.30
11989;DHT22;6054;50.966;7.094;2024-03-29T11:54:39;21.20;48.40
11989;DHT22;6054;50.966;7.094;2024-03-29T11:57:10;21.10;48.30
11989;DHT22;6054;50.966;7.094;2024-03-29T11:59:37;21.10;47.50
11989;DHT22;6054;50.966;7.094;2024-03-29T12:02:07;21.00;47.60
11989;DHT22;6054;50.966;7.094;2024-03-29T12:04:46;21.10;47.60
11989;DHT22;6054;50.966;7.094;2024-03-29T12:07:13;21.00;47.40
11989;DHT22;6054;50.966;7.094;2024-03-29T12:09:42;21.10;47.20
11989;DHT22;6054;50.966;7.094;2024-03-29T12:12:11;21.10;47.90
11989;DHT22;6054;50.966;7.094;2024-03-29T12:14:45;21.10;47.50
11989;DHT22;6054;50.966;7.094;2024-03-29T12:17:13;21.10;47.70
11989;DHT22;6054;50.966;7.094;2024-03-29T12:19:47;21.00;47.90
11989;DHT22;6054;50.966;7.094;2024-03-29T12:22:16;20.90;47.90
11989;DHT22;6054;50.966;7.094;2024-03-29T12:24:45;21.00;48.30
11989;DHT22;6054;50.966;7.094;2024-03-29T12:27:14;20.90;48.30
11989;DHT22;6054;50.966;7.094;2024-03-29T12:29:44;20.90;48.70
11989;DHT22;6054;50.966;7.094;2024-03-29T12:32:12;20.90;48.50
11989;DHT22;6054;50.966;7.094;2024-03-29T12:34:43;20.90;48.50
11989;DHT22;6054;50.966;7.094;2024-03-29T12:37:15;20.90;48.80
11989;DHT22;6054;50.966;7.094;2024-03-29T12:39:48;21.00;48.90
11989;DHT22;6054;50.966;7.094;2024-03-29T12:42:21;21.00;49.00
11989;DHT22;6054;50.966;7.094;2024-03-29T12:44:51;21.00;49.20
11989;DHT22;6054;50.966;7.094;2024-03-29T12:47:19;21.00;49.20
11989;DHT22;6054;50.966;7.094;2024-03-29T12:49:48;21.10;49.50
11989;DHT22;6054;50.966;7.094;2024-03-29T12:52:16;21.00;49.70
11989;DHT22;6054;50.966;7.094;2024-03-29T12:54:43;21.00;49.70
11989;DHT22;6054;50.966;7.094;2024-03-29T12:57:11;21.00;50.30
11989;DHT22;6054;50.966;7.094;2024-03-29T12:59:39;21.10;50.20
11989;DHT22;6054;50.966;7.094;2024-03-29T13:02:10;21.10;50.30
11989;DHT22;6054;50.966;7.094;2024-03-29T13:04:37;21.10;50.60
11989;DHT22;6054;50.966;7.094;2024-03-29T13:07:10;21.20;50.70
11989;DHT22;6054;50.966;7.094;2024-03-29T13:09:39;21.20;50.50
11989;DHT22;6054;50.966;7.094;2024-03-29T13:12:06;21.10;49.50
11989;DHT22;6054;50.966;7.094;2024-03-29T13:14:35;21.10;49.80
11989;DHT22;6054;50.966;7.094;2024-03-29T13:17:04;21.20;49.50
11989;DHT22;6054;50.966;7.094;2024-03-29T13:19:32;21.20;49.10
11989;DHT22;6054;50.966;7.094;2024-03-29T13:22:00;21.20;49.30
11989;DHT22;6054;50.966;7.094;2024-03-29T13:24:28;21.20;47.70
11989;DHT22;6054;50.966;7.094;2024-03-29T13:27:03;21.20;48.20
11989;DHT22;6054;50.966;7.094;2024-03-29T13:29:36;21.20;47.60
11989;DHT22;6054;50.966;7.094;2024-03-29T13:32:07;21.30;48.70
11989;DHT22;6054;50.966;7.094;2024-03-29T13:34:34;21.40;47.70
11989;DHT22;6054;50.966;7.094;2024-03-29T13:37:01;21.40;48.00
11989;DHT22;6054;50.966;7.094;2024-03-29T13:39:30;21.40;48.10
11989;DHT22;6054;50.966;7.094;2024-03-29T13:42:00;21.40;47.80
11989;DHT22;6054;50.966;7.094;2024-03-29T13:44:28;21.40;48.00
11989;DHT22;6054;50.966;7.094;2024-03-29T13:46:57;21.30;48.40
11989;DHT22;6054;50.966;7.094;2024-03-29T13:49:30;21.40;48.30
11989;DHT22;6054;50.966;7.094;2024-03-29T13:51:57;21.40;49.00
11989;DHT22;6054;50.966;7.094;2024-03-29T13:54:28;21.40;49.10
11989;DHT22;6054;50.966;7.094;2024-03-29T13:57:06;21.50;48.90
11989;DHT22;6054;50.966;7.094;2024-03-29T13:59:35;21.50;49.70
11989;DHT22;6054;50.966;7.094;2024-03-29T14:02:05;21.60;49.80
11989;DHT22;6054;50.966;7.094;2024-03-29T14:04:43;21.80;49.20
11989;DHT22;6054;50.966;7.094;2024-03-29T14:07:15;21.70;49.00
11989;DHT22;6054;50.966;7.094;2024-03-29T14:09:56;21.80;48.60
11989;DHT22;6054;50.966;7.094;2024-03-29T14:12:25;21.90;48.20
11989;DHT22;6054;50.966;7.094;2024-03-29T14:14:53;22.00;48.00
11989;DHT22;6054;50.966;7.094;2024-03-29T14:17:21;22.00;48.10
11989;DHT22;6054;50.966;7.094;2024-03-29T14:19:56;22.20;47.80
11989;DHT22;6054;50.966;7.094;2024-03-29T14:22:25;22.30;47.40
11989;DHT22;6054;50.966;7.094;2024-03-29T14:24:52;22.30;47.30
11989;DHT22;6054;50.966;7.094;2024-03-29T14:27:25;22.40;47.10
11989;DHT22;6054;50.966;7.094;2024-03-29T14:29:54;22.40;44.80
11989;DHT22;6054;50.966;7.094;2024-03-29T14:32:24;22.40;46.50
11989;DHT22;6054;50.966;7.094;2024-03-29T14:34:53;22.50;45.90
11989;DHT22;6054;50.966;7.094;2024-03-29T14:37:21;22.50;46.00
11989;DHT22;6054;50.966;7.094;2024-03-29T14:39:48;22.50;45.50
11989;DHT22;6054;50.966;7.094;2024-03-29T14:42:17;22.50;45.50
11989;DHT22;6054;50.966;7.094;2024-03-29T14:44:48;22.60;46.20
11989;DHT22;6054;50.966;7.094;2024-03-29T14:47:20;22.90;45.00
11989;DHT22;6054;50.966;7.094;2024-03-29T14:49:51;22.60;45.60
11989;DHT22;6054;50.966;7.094;2024-03-29T14:52:19;22.70;45.60
11989;DHT22;6054;50.966;7.094;2024-03-29T14:54:47;22.70;45.70
11989;DHT22;6054;50.966;7.094;2024-03-29T14:57:26;22.80;44.40
11989;DHT22;6054;50.966;7.094;2024-03-29T14:59:54;22.80;45.40
11989;DHT22;6054;50.966;7.094;2024-03-29T15:02:21;22.70;44.60
11989;DHT22;6054;50.966;7.094;2024-03-29T15:04:53;22.80;44.00
11989;DHT22;6054;50.966;7.094;2024-03-29T15:07:35;22.70;44.30
11989;DHT22;6054;50.966;7.094;2024-03-29T15:10:04;22.80;44.20
11989;DHT22;6054;50.966;7.094;2024-03-29T15:12:36;22.80;43.90
11989;DHT22;6054;50.966;7.094;2024-03-29T15:15:13;22.80;43.70
11989;DHT22;6054;50.966;7.094;2024-03-29T15:17:41;22.90;43.70
11989;DHT22;6054;50.966;7.094;2024-03-29T15:20:10;22.90;42.80
11989;DHT22;6054;50.966;7.094;2024-03-29T15:22:43;23.00;43.00
11989;DHT22;6054;50.966;7.094;2024-03-29T15:25:11;23.00;43.50
11989;DHT22;6054;50.966;7.094;2024-03-29T15:27:42;23.10;43.50
11989;DHT22;6054;50.966;7.094;2024-03-29T15:30:27;23.40;43.10
11989;DHT22;6054;50.966;7.094;2024-03-29T15:32:55;23.10;42.70
11989;DHT22;6054;50.966;7.094;2024-03-29T15:35:23;23.10;42.40
11989;DHT22;6054;50.966;7.094;2024-03-29T15:37:54;23.10;41.80
11989;DHT22;6054;50.966;7.094;2024-03-29T15:40:23;23.00;42.20
11989;DHT22;6054;50.966;7.094;2024-03-29T15:42:54;22.90;42.50
11989;DHT22;6054;50.966;7.094;2024-03-29T15:45:22;22.90;42.40
11989;DHT22;6054;50.966;7.094;2024-03-29T15:47:52;22.80;42.40
11989;DHT22;6054;50.966;7.094;2024-03-29T15:50:21;22.80;42.80
11989;DHT22;6054;50.966;7.094;2024-03-29T15:52:47;22.80;42.60
11989;DHT22;6054;50.966;7.094;2024-03-29T15:55:16;22.90;42.80
11989;DHT22;6054;50.966;7.094;2024-03-29T15:57:43;22.60;42.70
11989;DHT22;6054;50.966;7.094;2024-03-29T16:00:15;22.60;43.00
11989;DHT22;6054;50.966;7.094;2024-03-29T16:02:49;22.50;43.10
11989;DHT22;6054;50.966;7.094;2024-03-29T16:05:17;22.50;43.40
11989;DHT22;6054;50.966;7.094;2024-03-29T16:07:45;22.40;43.20